Terminal Aerodrome Forecast
Issued by NWS Wilmington, NC

Home | Current Version | Previous Version | Text Only | Print | Product List | Glossary On
Versions: 1 2 3 4 5 6 7 8 9 10 11 12 13 14 15 16 17 18 19 20 21 22 23
657
FTUS42 KILM 060822 AAA
TAFMYR
TAF AMD
KMYR 060822Z 0608/0706 31006KT P6SM SCT025 BKN100
     FM061100 30005KT P6SM BKN025
     FM061400 30010G15KT P6SM VCSH BKN040 OVC100
     FM061700 30012G18KT P6SM VCTS SCT030CB BKN040 OVC120
     FM070000 29005KT P6SM SCT060 BKN200
      AMD LTD TO CLD VIS AND WIND TIL 061100=

USA.gov is the U.S. government's official web portal to all federal, state and local government web resources and services.